Terminal Aerodrome Forecast
Issued by NWS

Home | Current Version | Previous Version | Text Only | Print | Product List | Glossary On
Versions: 1 2 3 4 5 6 7 8 9 10 11 12 13
000
FTUS41 KBTV 201128
TAFPBG
TAF
KPBG 201128Z 2012/2112 30010G21KT P6SM SCT030 OVC045
     FM201600 32015KT P6SM OVC035
     FM210000 31010KT P6SM SCT080
     FM210500 31007KT P6SM BKN050=

USA.gov is the U.S. government's official web portal to all federal, state and local government web resources and services.